Time;durP1;ratioP1;P1;durP2;ratioP2;P2;SDS_P1;SDS_P2;PMS_P1;PMS_P2;Temp;Humidity;BMP_temperature;BMP_pressure;BME280_temperature;BME280_humidity;BME280_pressure;Samples;Min_cycle;Max_cycle;Signal;HPM_P1;HPM_P2
2021/01/01 00:00:33;;;;;;;97.60;52.73;;;3.30;99.90;;;;;;5123500;27;20467;-76
2021/01/01 00:03:00;;;;;;;89.53;52.70;;;3.30;99.90;;;;;;5121855;27;20453;-77
2021/01/01 00:05:27;;;;;;;77.10;48.93;;;3.30;99.90;;;;;;5121011;27;20553;-77
2021/01/01 00:07:53;;;;;;;90.07;52.67;;;3.20;99.90;;;;;;5122491;27;20448;-77
2021/01/01 00:10:21;;;;;;;91.47;53.37;;;3.30;99.90;;;;;;5119298;28;20488;-77
2021/01/01 00:12:48;;;;;;;108.07;54.90;;;3.20;99.90;;;;;;5118365;28;20453;-77
2021/01/01 00:15:15;;;;;;;83.37;50.90;;;3.20;99.90;;;;;;5122900;27;20464;-76
2021/01/01 00:17:42;;;;;;;97.33;52.70;;;3.20;99.90;;;;;;5119880;28;20461;-76
2021/01/01 00:20:11;;;;;;;85.87;53.50;;;3.20;99.90;;;;;;5120637;28;20465;-76
2021/01/01 00:22:39;;;;;;;77.53;49.97;;;3.20;99.90;;;;;;5117647;28;20987;-76
2021/01/01 00:25:07;;;;;;;86.63;49.23;;;3.20;99.90;;;;;;5123003;28;20521;-76
2021/01/01 00:27:35;;;;;;;76.97;49.43;;;3.20;99.90;;;;;;5120353;28;20467;-76
2021/01/01 00:30:04;;;;;;;70.90;49.13;;;3.20;99.90;;;;;;5120956;28;20453;-75
2021/01/01 00:32:30;;;;;;;75.60;47.87;;;3.20;99.90;;;;;;5120175;28;21537;-75
2021/01/01 00:34:56;;;;;;;73.43;44.40;;;3.10;99.90;;;;;;5119484;28;20452;-77
2021/01/01 00:37:23;;;;;;;79.73;45.47;;;3.10;99.90;;;;;;5119676;28;20468;-77
2021/01/01 00:39:50;;;;;;;73.53;47.10;;;3.10;99.90;;;;;;5120075;28;20484;-78
2021/01/01 00:42:17;;;;;;;68.43;44.10;;;3.10;99.90;;;;;;5124142;28;20465;-76
2021/01/01 00:44:44;;;;;;;66.77;43.00;;;3.10;99.90;;;;;;5124432;28;20504;-75
2021/01/01 00:47:11;;;;;;;68.73;43.77;;;3.10;99.90;;;;;;5121831;27;20492;-77
2021/01/01 00:49:38;;;;;;;67.67;43.13;;;3.10;99.90;;;;;;5119812;28;20835;-76
2021/01/01 00:52:06;;;;;;;56.20;39.73;;;3.10;99.90;;;;;;5122648;28;20460;-77
2021/01/01 00:54:32;;;;;;;59.17;42.63;;;3.00;99.90;;;;;;5114874;28;20453;-76
2021/01/01 00:56:59;;;;;;;70.87;45.77;;;2.90;99.90;;;;;;5123286;28;20463;-75
2021/01/01 00:59:27;;;;;;;71.37;46.00;;;2.90;99.90;;;;;;5119343;28;20456;-77
2021/01/01 01:01:55;;;;;;;65.37;45.87;;;2.80;99.90;;;;;;5127350;27;20464;-76
2021/01/01 01:04:22;;;;;;;68.63;45.17;;;2.80;99.90;;;;;;5113659;28;20457;-76
2021/01/01 01:06:49;;;;;;;73.40;48.20;;;2.80;99.90;;;;;;5122289;28;20492;-74
2021/01/01 01:09:15;;;;;;;83.63;46.80;;;2.70;99.90;;;;;;5121787;28;20471;-76
2021/01/01 01:11:42;;;;;;;77.37;49.10;;;2.70;99.90;;;;;;5123266;28;21013;-73
2021/01/01 01:14:08;;;;;;;70.57;47.93;;;2.80;99.90;;;;;;5120141;27;20461;-76
2021/01/01 01:16:34;;;;;;;71.47;45.83;;;2.80;99.90;;;;;;5128923;27;20474;-76
2021/01/01 01:19:03;;;;;;;73.37;46.47;;;2.70;99.90;;;;;;5124590;27;20460;-77
2021/01/01 01:21:30;;;;;;;80.40;49.27;;;2.70;99.90;;;;;;5126585;27;20955;-75
2021/01/01 01:23:57;;;;;;;85.77;48.70;;;2.70;99.90;;;;;;5125023;27;20914;-74
2021/01/01 01:26:24;;;;;;;77.50;46.30;;;2.70;99.90;;;;;;5127570;27;20580;-74
2021/01/01 01:28:51;;;;;;;73.77;46.83;;;2.70;99.90;;;;;;5130358;27;20466;-77
2021/01/01 01:31:20;;;;;;;70.83;47.47;;;2.60;99.90;;;;;;5128714;27;20513;-74
2021/01/01 01:33:47;;;;;;;77.33;47.13;;;2.70;99.90;;;;;;5124533;27;20569;-77
2021/01/01 01:36:15;;;;;;;73.97;47.60;;;2.70;99.90;;;;;;5124072;27;20448;-76
2021/01/01 01:38:41;;;;;;;80.60;46.67;;;2.60;99.90;;;;;;5123523;27;20477;-76
2021/01/01 01:41:08;;;;;;;71.53;46.30;;;2.60;99.90;;;;;;5129633;27;20477;-77
2021/01/01 01:43:35;;;;;;;73.67;46.77;;;2.60;99.90;;;;;;5124532;27;20958;-76
2021/01/01 01:46:01;;;;;;;78.90;47.27;;;2.60;99.90;;;;;;5124580;27;20485;-74
2021/01/01 01:48:30;;;;;;;69.10;45.17;;;2.70;99.90;;;;;;5122958;27;20812;-74
2021/01/01 01:50:59;;;;;;;69.30;45.50;;;2.60;99.90;;;;;;5123915;27;20471;-75
2021/01/01 01:53:30;;;;;;;82.50;47.50;;;2.70;99.90;;;;;;5123545;27;20460;-75
2021/01/01 01:55:58;;;;;;;74.00;47.03;;;2.70;99.90;;;;;;5119829;27;20452;-74
2021/01/01 01:58:25;;;;;;;67.70;45.77;;;2.70;99.90;;;;;;5126833;27;20826;-76
2021/01/01 02:00:58;;;;;;;65.10;45.57;;;2.70;99.90;;;;;;5124219;27;20959;-74
2021/01/01 02:03:27;;;;;;;72.73;47.40;;;2.70;99.90;;;;;;5126788;27;20654;-76
2021/01/01 02:05:53;;;;;;;69.43;46.47;;;2.70;99.90;;;;;;5126447;27;20472;-76
2021/01/01 02:08:20;;;;;;;89.20;49.63;;;2.80;99.90;;;;;;5124763;27;20460;-77
2021/01/01 02:10:51;;;;;;;78.97;49.83;;;2.70;99.90;;;;;;5124136;27;20452;-75
2021/01/01 02:13:20;;;;;;;86.13;50.33;;;2.70;99.90;;;;;;5122083;27;20461;-74
2021/01/01 02:15:47;;;;;;;83.03;51.73;;;2.80;99.90;;;;;;5118317;27;20469;-77
2021/01/01 02:18:32;;;;;;;78.03;50.40;;;2.90;99.90;;;;;;5122967;27;20484;-74
2021/01/01 02:20:58;;;;;;;88.00;51.23;;;3.00;99.90;;;;;;5124125;27;20983;-74
2021/01/01 02:23:25;;;;;;;86.97;54.90;;;3.00;99.90;;;;;;5121904;27;20456;-76
2021/01/01 02:25:51;;;;;;;89.30;56.03;;;2.90;99.90;;;;;;5120133;27;20980;-74
2021/01/01 02:28:17;;;;;;;93.90;56.00;;;2.90;99.90;;;;;;5122158;27;20512;-74
2021/01/01 02:30:44;;;;;;;87.57;54.30;;;2.80;99.90;;;;;;5121614;27;20452;-74
2021/01/01 02:33:10;;;;;;;93.67;53.87;;;2.80;99.90;;;;;;5120361;27;20460;-74
2021/01/01 02:35:36;;;;;;;87.03;55.83;;;2.80;99.90;;;;;;5125043;27;20467;-75
2021/01/01 02:38:04;;;;;;;102.27;57.57;;;2.80;99.90;;;;;;5121994;27;20883;-74
2021/01/01 02:40:31;;;;;;;100.80;55.20;;;2.90;99.90;;;;;;5121096;27;20490;-76
2021/01/01 02:42:58;;;;;;;92.80;55.00;;;2.90;99.90;;;;;;5126193;27;20468;-74
2021/01/01 02:45:24;;;;;;;92.30;56.40;;;2.90;99.90;;;;;;5118123;27;20461;-75
2021/01/01 02:47:51;;;;;;;98.73;57.20;;;2.80;99.90;;;;;;5128823;27;20457;-75
2021/01/01 02:50:18;;;;;;;111.40;59.70;;;2.80;99.90;;;;;;5122253;27;20553;-74
2021/01/01 02:52:45;;;;;;;104.40;61.20;;;2.70;99.90;;;;;;5121946;27;20466;-76
2021/01/01 02:55:12;;;;;;;97.87;58.80;;;2.60;99.90;;;;;;5119732;27;21011;-74
2021/01/01 02:57:39;;;;;;;107.80;62.00;;;2.50;99.90;;;;;;5125211;27;20607;-76
2021/01/01 03:00:07;;;;;;;110.90;61.83;;;2.50;99.90;;;;;;5122147;27;20532;-77
2021/01/01 03:02:33;;;;;;;110.10;62.20;;;2.50;99.90;;;;;;5127664;27;20507;-74
2021/01/01 03:04:59;;;;;;;120.13;67.10;;;2.50;99.90;;;;;;5127353;27;20457;-77
2021/01/01 03:07:25;;;;;;;122.13;61.23;;;2.50;99.90;;;;;;5121888;27;20485;-74
2021/01/01 03:09:52;;;;;;;96.23;58.30;;;2.50;99.90;;;;;;5124023;27;20815;-77
2021/01/01 03:12:19;;;;;;;102.97;60.63;;;2.60;99.90;;;;;;5123155;27;20822;-75
2021/01/01 03:14:46;;;;;;;96.70;59.53;;;2.60;99.90;;;;;;5122644;27;20467;-74
2021/01/01 03:17:13;;;;;;;105.77;59.20;;;2.60;99.90;;;;;;5120098;27;20974;-73
2021/01/01 03:19:41;;;;;;;111.57;61.07;;;2.60;99.90;;;;;;5123468;27;20456;-77
2021/01/01 03:22:07;;;;;;;102.40;57.03;;;2.70;99.90;;;;;;5121791;27;20505;-76
2021/01/01 03:24:34;;;;;;;107.30;59.40;;;2.70;99.90;;;;;;5123237;27;20456;-77
2021/01/01 03:27:01;;;;;;;99.60;58.30;;;2.70;99.90;;;;;;5122279;27;20534;-75
2021/01/01 03:29:27;;;;;;;105.57;61.30;;;2.70;99.90;;;;;;5122757;27;20457;-76
2021/01/01 03:31:54;;;;;;;106.03;57.90;;;2.70;99.90;;;;;;5121493;27;20551;-77
2021/01/01 03:34:20;;;;;;;109.23;59.40;;;2.70;99.90;;;;;;5112133;27;20463;-75
2021/01/01 03:36:47;;;;;;;105.23;58.50;;;2.60;99.90;;;;;;5125625;27;20457;-76
2021/01/01 03:39:13;;;;;;;95.87;57.47;;;2.60;99.90;;;;;;5124669;27;20851;-76
2021/01/01 03:41:39;;;;;;;96.40;54.93;;;2.60;99.90;;;;;;5121170;27;21013;-73
2021/01/01 03:44:06;;;;;;;103.47;54.53;;;2.50;99.90;;;;;;5123560;27;20460;-75
2021/01/01 03:46:32;;;;;;;99.33;55.80;;;2.60;99.90;;;;;;5128415;27;20524;-74
2021/01/01 03:49:00;;;;;;;92.67;56.80;;;2.60;99.90;;;;;;5123590;27;20840;-76
2021/01/01 03:51:27;;;;;;;98.10;56.37;;;2.70;99.90;;;;;;5119618;27;20469;-76
2021/01/01 03:53:53;;;;;;;96.60;57.50;;;2.80;99.90;;;;;;5121424;27;20544;-76
2021/01/01 03:56:20;;;;;;;99.53;55.90;;;2.80;99.90;;;;;;5117136;27;20480;-76
2021/01/01 03:58:47;;;;;;;97.80;59.70;;;2.70;99.90;;;;;;5122998;27;20967;-75
2021/01/01 04:01:16;;;;;;;91.47;56.90;;;2.80;99.90;;;;;;5123931;27;20456;-74
2021/01/01 04:03:42;;;;;;;102.57;57.37;;;2.70;99.90;;;;;;5124428;27;20456;-77
2021/01/01 04:06:11;;;;;;;102.93;58.87;;;2.70;99.90;;;;;;5121844;27;20468;-75
2021/01/01 04:08:38;;;;;;;102.43;58.70;;;2.70;99.90;;;;;;5121953;27;21067;-74
2021/01/01 04:11:05;;;;;;;100.10;56.90;;;2.60;99.90;;;;;;5118083;28;20468;-74
2021/01/01 04:13:31;;;;;;;109.97;59.70;;;2.60;99.90;;;;;;5125421;28;20453;-76
2021/01/01 04:16:00;;;;;;;100.33;55.83;;;2.60;99.90;;;;;;5126031;27;20815;-74
2021/01/01 04:18:26;;;;;;;97.00;57.17;;;2.70;99.90;;;;;;5120983;28;20510;-75
2021/01/01 04:20:53;;;;;;;102.03;56.20;;;2.70;99.90;;;;;;5125086;28;20483;-74
2021/01/01 04:23:21;;;;;;;97.93;56.03;;;2.70;99.90;;;;;;5124906;28;20517;-75
2021/01/01 04:25:48;;;;;;;95.97;59.10;;;2.70;99.90;;;;;;5121524;28;20484;-76
2021/01/01 04:28:16;;;;;;;94.40;58.30;;;2.70;99.90;;;;;;5114198;28;20457;-76
2021/01/01 04:30:42;;;;;;;86.73;56.60;;;2.60;99.90;;;;;;5123958;27;20460;-75
2021/01/01 04:33:10;;;;;;;109.67;58.47;;;2.60;99.90;;;;;;5121245;28;20828;-76
2021/01/01 04:35:36;;;;;;;107.80;57.50;;;2.60;99.90;;;;;;5129070;28;20816;-75
2021/01/01 04:38:03;;;;;;;112.33;57.80;;;2.60;99.90;;;;;;5125407;28;20857;-76
2021/01/01 04:40:31;;;;;;;98.23;57.80;;;2.60;99.90;;;;;;5120641;28;20991;-75
2021/01/01 04:43:00;;;;;;;97.10;58.30;;;2.60;99.90;;;;;;5120360;28;20457;-76
2021/01/01 04:45:27;;;;;;;100.07;58.00;;;2.60;99.90;;;;;;5125826;27;20451;-76
2021/01/01 04:47:55;;;;;;;94.13;58.03;;;2.60;99.90;;;;;;5124064;28;20449;-77
2021/01/01 04:50:22;;;;;;;101.43;61.30;;;2.60;99.90;;;;;;5115755;28;20517;-74
2021/01/01 04:52:50;;;;;;;99.97;59.90;;;2.60;99.90;;;;;;5123705;27;20468;-76
2021/01/01 04:55:17;;;;;;;105.57;62.33;;;2.60;99.90;;;;;;5124379;27;20457;-77
2021/01/01 04:57:46;;;;;;;105.93;64.40;;;2.70;99.90;;;;;;5127749;27;20463;-74
2021/01/01 05:00:14;;;;;;;110.37;68.73;;;2.70;99.90;;;;;;5121957;27;20460;-74
2021/01/01 05:02:41;;;;;;;108.07;65.10;;;2.60;99.90;;;;;;5116586;27;20471;-76
2021/01/01 05:05:10;;;;;;;99.60;70.03;;;2.60;99.90;;;;;;5124402;27;20444;-76
2021/01/01 05:07:36;;;;;;;107.10;69.30;;;2.60;99.90;;;;;;5103343;27;20965;-74
2021/01/01 05:10:03;;;;;;;103.20;68.93;;;2.60;99.90;;;;;;5119907;27;20452;-76
2021/01/01 05:12:32;;;;;;;106.30;66.90;;;2.50;99.90;;;;;;5125316;27;20444;-75
2021/01/01 05:15:00;;;;;;;107.70;66.23;;;2.50;99.90;;;;;;5122643;27;20800;-74
2021/01/01 05:17:34;;;;;;;106.40;70.83;;;2.50;99.90;;;;;;5134201;27;20548;-76
2021/01/01 05:20:05;;;;;;;114.20;69.87;;;2.50;99.90;;;;;;5123033;27;20556;-76
2021/01/01 05:22:33;;;;;;;100.93;66.00;;;2.50;99.90;;;;;;5118848;27;20828;-76
2021/01/01 05:25:03;;;;;;;109.17;68.40;;;2.40;99.90;;;;;;5121015;27;20455;-76
2021/01/01 05:27:34;;;;;;;118.53;70.53;;;2.40;99.90;;;;;;5122437;27;20511;-74
2021/01/01 05:30:03;;;;;;;108.10;68.27;;;2.40;99.90;;;;;;5121842;27;20456;-74
2021/01/01 05:32:30;;;;;;;121.47;70.50;;;2.40;99.90;;;;;;5121472;27;20461;-76
2021/01/01 05:34:57;;;;;;;103.97;67.33;;;2.50;99.90;;;;;;5127567;27;20487;-77
2021/01/01 05:37:29;;;;;;;100.83;65.27;;;2.50;99.90;;;;;;5120284;27;20461;-76
2021/01/01 05:40:06;;;;;;;117.33;68.87;;;2.50;99.90;;;;;;5123560;27;20488;-74
2021/01/01 05:42:34;;;;;;;100.07;66.90;;;2.40;99.90;;;;;;5122830;27;20460;-76
2021/01/01 05:45:15;;;;;;;102.43;66.83;;;2.40;99.90;;;;;;5126845;27;20452;-77
2021/01/01 05:47:41;;;;;;;107.27;68.27;;;2.40;99.90;;;;;;5127552;27;20539;-76
2021/01/01 05:50:10;;;;;;;118.00;72.37;;;2.40;99.90;;;;;;5121785;27;20469;-74
2021/01/01 05:52:37;;;;;;;109.07;67.03;;;2.40;99.90;;;;;;5125991;27;20479;-76
2021/01/01 05:55:06;;;;;;;109.17;71.80;;;2.40;99.90;;;;;;5119158;27;20467;-76
2021/01/01 05:57:37;;;;;;;116.13;71.33;;;2.50;99.90;;;;;;5125935;27;20901;-75
2021/01/01 06:00:06;;;;;;;113.70;71.30;;;2.50;99.90;;;;;;5119705;27;20480;-76
2021/01/01 06:02:38;;;;;;;116.93;72.77;;;2.40;99.90;;;;;;5128929;27;20465;-74
2021/01/01 06:05:10;;;;;;;111.87;70.40;;;2.40;99.90;;;;;;5129639;27;20460;-74
2021/01/01 06:07:39;;;;;;;101.23;66.40;;;2.40;99.90;;;;;;5123680;27;20484;-77
2021/01/01 06:10:06;;;;;;;104.97;66.80;;;2.50;99.90;;;;;;5122836;27;20860;-74
2021/01/01 06:12:36;;;;;;;110.77;69.67;;;2.50;99.90;;;;;;5123139;27;20505;-73
2021/01/01 06:15:06;;;;;;;107.67;67.60;;;2.50;99.90;;;;;;5123472;27;20452;-77
2021/01/01 06:17:48;;;;;;;114.70;73.07;;;2.40;99.90;;;;;;5123711;27;20900;-73
2021/01/01 06:20:18;;;;;;;107.97;66.80;;;2.40;99.90;;;;;;5126689;27;20452;-74
2021/01/01 06:23:00;;;;;;;105.60;70.17;;;2.30;99.90;;;;;;5121123;27;20468;-74
2021/01/01 06:25:27;;;;;;;123.70;71.83;;;2.20;99.90;;;;;;5124325;27;20467;-74
2021/01/01 06:27:53;;;;;;;121.30;71.50;;;2.20;99.90;;;;;;5121644;27;20488;-74
2021/01/01 06:30:21;;;;;;;116.63;71.23;;;2.20;99.90;;;;;;5125357;27;20461;-77
2021/01/01 06:32:48;;;;;;;122.23;71.10;;;2.30;99.90;;;;;;5124245;27;20499;-76
2021/01/01 06:35:17;;;;;;;114.43;73.10;;;2.30;99.90;;;;;;5123004;27;20830;-75
2021/01/01 06:37:47;;;;;;;130.43;69.33;;;2.20;99.90;;;;;;5127520;27;20445;-75
2021/01/01 06:40:32;;;;;;;117.23;74.60;;;2.20;99.90;;;;;;5121608;27;20509;-77
2021/01/01 06:43:00;;;;;;;129.03;71.80;;;2.20;99.90;;;;;;5121571;27;20472;-74
2021/01/01 06:45:45;;;;;;;119.37;74.30;;;2.20;99.90;;;;;;5125123;27;20707;-75
2021/01/01 06:48:34;;;;;;;114.20;68.20;;;2.20;99.90;;;;;;5120628;27;21057;-74
2021/01/01 06:51:00;;;;;;;105.23;69.50;;;2.20;99.90;;;;;;5123574;27;20472;-74
2021/01/01 06:53:27;;;;;;;132.17;77.20;;;2.20;99.90;;;;;;5119855;27;20814;-76
2021/01/01 06:56:07;;;;;;;125.60;73.63;;;2.30;99.90;;;;;;5122340;27;20471;-75
2021/01/01 06:58:33;;;;;;;126.00;70.00;;;2.20;99.90;;;;;;5120176;27;20556;-75
2021/01/01 07:01:00;;;;;;;131.03;71.90;;;2.20;99.90;;;;;;5120801;27;20467;-77
2021/01/01 07:03:31;;;;;;;137.20;78.27;;;2.20;99.90;;;;;;5125776;27;20503;-75
2021/01/01 07:06:15;;;;;;;128.40;73.00;;;2.20;99.90;;;;;;5125073;27;20479;-77
2021/01/01 07:08:45;;;;;;;126.40;74.00;;;2.20;99.90;;;;;;5129079;27;20456;-74
2021/01/01 07:11:47;;;;;;;138.97;75.90;;;2.20;99.90;;;;;;5123164;27;20484;-74
2021/01/01 07:14:19;;;;;;;139.13;69.90;;;2.30;99.90;;;;;;5112986;27;20591;-76
2021/01/01 07:16:47;;;;;;;133.40;74.87;;;2.30;99.90;;;;;;5120743;27;20461;-76
2021/01/01 07:19:17;;;;;;;122.43;75.10;;;2.30;99.90;;;;;;5125880;27;20463;-77
2021/01/01 07:21:44;;;;;;;123.10;73.63;;;2.20;99.90;;;;;;5126602;27;20465;-74
2021/01/01 07:24:11;;;;;;;133.77;77.73;;;2.20;99.90;;;;;;5124470;27;20863;-75
2021/01/01 07:26:37;;;;;;;134.20;76.80;;;2.20;99.90;;;;;;5121252;27;20476;-77
2021/01/01 07:29:05;;;;;;;135.50;77.03;;;2.30;99.90;;;;;;5120445;27;20460;-76
2021/01/01 07:31:32;;;;;;;142.33;74.47;;;2.30;99.90;;;;;;5118419;27;20459;-78
2021/01/01 07:34:11;;;;;;;141.37;73.57;;;2.20;99.90;;;;;;5123665;27;20488;-75
2021/01/01 07:36:38;;;;;;;133.73;75.50;;;2.20;99.90;;;;;;5122383;27;20529;-76
2021/01/01 07:39:06;;;;;;;131.33;73.57;;;2.20;99.90;;;;;;5120156;27;20476;-73
2021/01/01 07:41:33;;;;;;;145.87;76.67;;;2.10;99.90;;;;;;5125873;27;20480;-73
2021/01/01 07:44:00;;;;;;;150.77;73.17;;;2.10;99.90;;;;;;5124121;27;20467;-73
2021/01/01 07:46:29;;;;;;;135.63;73.60;;;2.20;99.90;;;;;;5120635;27;20678;-75
2021/01/01 07:48:55;;;;;;;127.40;72.03;;;2.10;99.90;;;;;;5123986;27;20487;-76
2021/01/01 07:51:22;;;;;;;130.50;70.83;;;2.10;99.90;;;;;;5122004;27;20475;-75
2021/01/01 07:53:50;;;;;;;122.80;68.80;;;2.00;99.90;;;;;;5120803;27;20461;-76
2021/01/01 07:56:21;;;;;;;127.07;69.47;;;2.00;99.90;;;;;;5116606;27;20459;-74
2021/01/01 07:58:50;;;;;;;135.80;71.20;;;2.00;99.90;;;;;;5124391;27;20868;-73
2021/01/01 08:01:18;;;;;;;134.90;68.77;;;2.00;99.90;;;;;;5121875;27;20950;-74
2021/01/01 08:03:45;;;;;;;132.60;71.80;;;2.00;99.90;;;;;;5121130;27;20517;-75
2021/01/01 08:06:12;;;;;;;140.10;74.60;;;2.10;99.90;;;;;;5122855;27;20667;-73
2021/01/01 08:08:38;;;;;;;137.50;68.60;;;2.00;99.90;;;;;;5122381;27;20470;-74
2021/01/01 08:11:07;;;;;;;132.03;75.27;;;2.10;99.90;;;;;;5125807;27;20448;-76
2021/01/01 08:13:35;;;;;;;139.93;71.27;;;2.10;99.90;;;;;;5120255;27;20950;-74
2021/01/01 08:16:13;;;;;;;115.23;70.60;;;2.10;99.90;;;;;;5123940;27;20546;-73
2021/01/01 08:18:40;;;;;;;108.50;64.17;;;2.20;99.90;;;;;;5122475;28;20459;-75
2021/01/01 08:21:07;;;;;;;136.60;70.50;;;2.20;99.90;;;;;;5118947;28;20457;-75
2021/01/01 08:23:43;;;;;;;135.97;72.47;;;2.20;99.90;;;;;;5117597;28;20483;-75
2021/01/01 08:26:10;;;;;;;129.57;67.03;;;2.20;99.90;;;;;;5117220;27;20479;-73
2021/01/01 08:28:37;;;;;;;119.47;64.23;;;2.20;99.90;;;;;;5120651;27;20512;-75
2021/01/01 08:31:06;;;;;;;129.20;66.37;;;2.10;99.90;;;;;;5136066;27;20872;-74
2021/01/01 08:33:34;;;;;;;126.23;66.67;;;2.20;99.90;;;;;;5126334;27;20467;-75
2021/01/01 08:36:03;;;;;;;126.13;67.60;;;2.20;99.90;;;;;;5126203;27;20460;-73
2021/01/01 08:38:29;;;;;;;123.00;70.07;;;2.10;99.90;;;;;;5120831;27;20457;-74
2021/01/01 08:40:57;;;;;;;127.80;67.47;;;2.20;99.90;;;;;;5128683;27;20491;-75
2021/01/01 08:43:26;;;;;;;114.20;68.30;;;2.20;99.90;;;;;;5128980;27;20459;-73
2021/01/01 08:45:53;;;;;;;120.33;68.10;;;2.30;99.90;;;;;;5129199;27;20459;-75
2021/01/01 08:48:21;;;;;;;131.73;70.00;;;2.30;99.90;;;;;;5120576;27;20456;-76
2021/01/01 08:50:49;;;;;;;133.33;70.60;;;2.40;99.90;;;;;;5120492;27;20834;-76
2021/01/01 08:53:17;;;;;;;132.40;70.83;;;2.50;99.90;;;;;;5120552;27;20680;-76
2021/01/01 08:55:43;;;;;;;129.77;68.90;;;2.50;99.90;;;;;;5121413;27;20552;-73
2021/01/01 08:58:11;;;;;;;124.23;64.47;;;2.60;99.90;;;;;;5121475;27;20463;-76
2021/01/01 09:00:39;;;;;;;104.83;60.03;;;2.70;99.90;;;;;;5122350;27;20468;-74
2021/01/01 09:03:06;;;;;;;116.83;63.17;;;2.70;99.90;;;;;;5125220;27;20457;-75
2021/01/01 09:05:35;;;;;;;97.57;56.80;;;2.80;99.90;;;;;;5123338;27;20512;-75
2021/01/01 09:08:10;;;;;;;103.07;57.77;;;2.80;99.90;;;;;;5127508;27;20484;-75
2021/01/01 09:10:39;;;;;;;103.80;59.50;;;3.00;99.90;;;;;;5128543;27;20448;-74
2021/01/01 09:13:21;;;;;;;93.93;56.90;;;3.10;99.90;;;;;;5125506;27;20459;-75
2021/01/01 09:16:00;;;;;;;97.10;54.60;;;3.20;99.90;;;;;;5126298;27;20459;-77
2021/01/01 09:18:26;;;;;;;102.57;58.33;;;3.30;99.90;;;;;;5124033;27;20501;-75
2021/01/01 09:21:09;;;;;;;120.57;58.90;;;3.30;99.90;;;;;;5125634;27;20460;-73
2021/01/01 09:23:36;;;;;;;105.03;54.93;;;3.40;99.90;;;;;;5122426;27;20589;-75
2021/01/01 09:26:03;;;;;;;98.70;55.07;;;3.40;99.90;;;;;;5123811;27;20462;-74
2021/01/01 09:28:29;;;;;;;96.53;56.17;;;3.50;99.90;;;;;;5120030;27;20464;-75
2021/01/01 09:30:57;;;;;;;94.17;54.60;;;3.60;99.90;;;;;;5122327;27;20452;-75
2021/01/01 09:33:23;;;;;;;90.40;55.20;;;3.70;99.90;;;;;;5121724;27;20457;-74
2021/01/01 09:35:50;;;;;;;87.40;53.87;;;3.60;99.90;;;;;;5118838;27;20456;-75
2021/01/01 09:38:17;;;;;;;88.57;51.40;;;3.70;99.90;;;;;;5120429;27;20465;-74
2021/01/01 09:40:43;;;;;;;85.33;51.73;;;3.70;99.90;;;;;;5117445;27;20582;-73
2021/01/01 09:43:09;;;;;;;92.60;48.90;;;3.80;99.90;;;;;;5124336;27;21035;-74
2021/01/01 09:45:37;;;;;;;85.03;50.63;;;3.90;99.90;;;;;;5124478;27;20514;-76
2021/01/01 09:48:05;;;;;;;83.17;49.17;;;4.00;99.90;;;;;;5118186;27;20531;-74
2021/01/01 09:50:32;;;;;;;95.27;53.57;;;4.00;99.90;;;;;;5118906;27;20468;-74
2021/01/01 09:53:01;;;;;;;82.37;51.13;;;4.20;99.90;;;;;;5121647;27;20463;-76
2021/01/01 09:55:28;;;;;;;95.77;48.93;;;4.20;99.90;;;;;;5118248;27;20506;-77
2021/01/01 09:57:55;;;;;;;80.93;49.40;;;4.20;99.90;;;;;;5121593;27;20849;-78
2021/01/01 10:07:32;;;;;;;76.17;44.70;;;4.60;99.90;;;;;;5009511;28;20974;-75
2021/01/01 10:09:59;;;;;;;87.93;49.07;;;4.60;99.90;;;;;;5111195;27;20452;-73
2021/01/01 10:12:26;;;;;;;80.23;46.47;;;4.70;99.90;;;;;;5129804;27;20468;-77
2021/01/01 10:14:54;;;;;;;73.23;45.90;;;4.80;99.90;;;;;;5125906;27;20451;-74
2021/01/01 10:17:21;;;;;;;80.87;46.13;;;4.80;99.90;;;;;;5125723;27;20547;-73
2021/01/01 10:19:49;;;;;;;69.83;43.30;;;4.90;99.90;;;;;;5115261;27;20457;-76
2021/01/01 10:22:16;;;;;;;75.37;48.60;;;4.80;99.90;;;;;;5123039;27;20450;-76
2021/01/01 10:24:44;;;;;;;79.30;45.20;;;4.80;99.90;;;;;;5125264;27;20460;-76
2021/01/01 10:27:10;;;;;;;70.27;41.13;;;5.00;99.90;;;;;;5123363;27;20488;-73
2021/01/01 10:29:37;;;;;;;78.67;46.30;;;5.20;99.90;;;;;;5118182;27;20453;-78
2021/01/01 10:32:04;;;;;;;69.20;43.70;;;5.20;99.90;;;;;;5126150;27;20464;-77
2021/01/01 10:34:30;;;;;;;71.40;45.43;;;5.20;99.90;;;;;;5118118;27;20461;-75
2021/01/01 10:36:57;;;;;;;69.03;43.87;;;5.40;99.90;;;;;;5123900;27;20930;-76
2021/01/01 10:39:27;;;;;;;65.80;43.33;;;5.40;99.90;;;;;;5123397;27;21033;-75
2021/01/01 10:41:54;;;;;;;67.23;40.60;;;5.60;99.90;;;;;;5120552;27;20471;-77
2021/01/01 10:44:21;;;;;;;69.27;44.73;;;5.60;99.90;;;;;;5118092;27;20455;-73
2021/01/01 10:46:52;;;;;;;64.80;43.20;;;5.80;99.90;;;;;;5120471;27;20491;-77
2021/01/01 10:49:20;;;;;;;65.37;43.80;;;5.90;99.90;;;;;;5122071;27;20557;-78
2021/01/01 10:51:46;;;;;;;60.67;41.30;;;5.80;99.90;;;;;;5123443;27;20460;-79
2021/01/01 10:54:13;;;;;;;53.57;39.23;;;5.90;99.90;;;;;;5122066;27;20496;-78
2021/01/01 10:56:40;;;;;;;67.73;42.33;;;6.00;99.90;;;;;;5119722;27;20577;-76
2021/01/01 10:59:06;;;;;;;59.67;40.30;;;6.10;99.90;;;;;;5116863;27;20463;-76
2021/01/01 11:01:33;;;;;;;53.33;38.57;;;6.00;99.90;;;;;;5117630;27;20460;-78
2021/01/01 11:03:59;;;;;;;55.47;38.70;;;6.20;99.90;;;;;;5120614;27;20457;-75
2021/01/01 11:06:26;;;;;;;68.00;41.17;;;6.30;99.90;;;;;;5122804;27;20481;-77
2021/01/01 11:08:52;;;;;;;54.30;40.00;;;6.30;99.90;;;;;;5116856;27;20951;-78
2021/01/01 11:11:24;;;;;;;57.37;37.50;;;6.50;99.90;;;;;;5117448;27;20453;-75
2021/01/01 11:13:53;;;;;;;48.40;36.77;;;6.40;99.90;;;;;;5122019;27;20464;-78
2021/01/01 12:22:49;;;;;;;40.63;34.07;;;9.50;99.90;;;;;;5116321;28;20459;-77
2021/01/01 12:25:15;;;;;;;41.90;32.70;;;9.80;99.90;;;;;;5119661;28;20460;-75
2021/01/01 12:27:45;;;;;;;34.03;29.30;;;10.50;99.90;;;;;;5122862;28;20488;-77
2021/01/01 12:30:12;;;;;;;34.37;30.63;;;10.60;99.90;;;;;;5119706;27;20448;-76
2021/01/01 12:32:40;;;;;;;36.47;28.30;;;10.50;99.90;;;;;;5119284;28;20509;-77
2021/01/01 12:35:09;;;;;;;32.03;28.57;;;10.30;99.90;;;;;;5119952;28;20456;-79
2021/01/01 12:37:35;;;;;;;32.37;28.90;;;10.20;99.90;;;;;;5121112;28;20689;-78
2021/01/01 12:40:02;;;;;;;40.50;32.33;;;9.80;99.90;;;;;;5119490;28;20483;-79
2021/01/01 12:42:29;;;;;;;34.50;29.83;;;9.50;99.90;;;;;;5127667;28;20559;-76
2021/01/01 12:44:56;;;;;;;31.90;28.40;;;9.30;99.90;;;;;;5123085;28;20455;-78
2021/01/01 12:47:23;;;;;;;31.67;27.30;;;9.50;99.90;;;;;;5120949;27;20487;-77
2021/01/01 12:49:52;;;;;;;35.73;28.33;;;9.10;99.90;;;;;;5115907;28;20457;-77
2021/01/01 12:52:19;;;;;;;29.83;26.67;;;8.80;99.90;;;;;;5116678;28;20722;-77
2021/01/01 12:54:46;;;;;;;31.20;27.80;;;8.60;99.90;;;;;;5123902;28;20463;-80
2021/01/01 12:57:13;;;;;;;31.10;27.50;;;8.60;99.90;;;;;;5119510;28;20452;-78
2021/01/01 12:59:39;;;;;;;29.60;25.80;;;8.80;99.90;;;;;;5116907;28;20464;-77
2021/01/01 13:02:05;;;;;;;29.70;25.63;;;8.70;99.90;;;;;;5124056;27;20560;-78
2021/01/01 13:04:32;;;;;;;28.97;25.27;;;8.60;99.90;;;;;;5118572;28;20480;-80
2021/01/01 13:06:59;;;;;;;28.47;24.40;;;8.60;99.90;;;;;;5123133;28;20487;-76
2021/01/01 13:09:25;;;;;;;26.43;23.63;;;8.70;99.90;;;;;;5116663;28;20457;-79
2021/01/01 13:11:52;;;;;;;25.00;22.30;;;8.90;99.90;;;;;;5115650;28;21025;-78
2021/01/01 13:14:19;;;;;;;23.93;21.63;;;9.10;99.90;;;;;;5124083;27;20644;-78
2021/01/01 13:16:46;;;;;;;27.40;23.13;;;9.40;99.90;;;;;;5125120;27;20506;-76
2021/01/01 13:19:13;;;;;;;27.37;24.07;;;9.40;99.90;;;;;;5117656;28;20464;-78
2021/01/01 13:21:41;;;;;;;25.43;22.90;;;9.50;99.90;;;;;;5124544;28;20474;-78
2021/01/01 13:24:09;;;;;;;25.93;23.37;;;9.40;99.90;;;;;;5116178;28;20492;-76
2021/01/01 13:26:35;;;;;;;28.60;23.70;;;8.90;99.90;;;;;;5122300;28;20544;-75
2021/01/01 13:29:03;;;;;;;30.13;23.30;;;8.60;99.90;;;;;;5122925;28;20460;-80
2021/01/01 13:31:37;;;;;;;27.13;24.23;;;8.20;99.90;;;;;;5123361;27;20513;-76
2021/01/01 13:34:05;;;;;;;27.27;24.37;;;8.20;99.90;;;;;;5126606;28;21466;-76
2021/01/01 13:36:31;;;;;;;27.03;23.73;;;8.30;99.90;;;;;;5121777;28;20474;-78
2021/01/01 13:38:58;;;;;;;29.03;22.43;;;8.10;99.90;;;;;;5124838;28;20483;-79
2021/01/01 13:41:25;;;;;;;26.30;23.70;;;8.00;99.90;;;;;;5028900;27;2571732;-76
2021/01/01 13:43:53;;;;;;;29.03;24.97;;;8.00;99.90;;;;;;5122209;27;20206;-76
2021/01/01 13:46:21;;;;;;;28.33;24.00;;;7.80;99.90;;;;;;5123406;27;20484;-79
2021/01/01 13:48:48;;;;;;;28.90;24.27;;;7.70;99.90;;;;;;5125141;27;21009;-76
2021/01/01 13:51:14;;;;;;;28.17;25.07;;;7.60;99.90;;;;;;5118521;27;20454;-77